sensor_id;sensor_type;location;lat;lon;timestamp;P1;durP1;ratioP1;P2;durP2;ratioP2
1719;SDS011;857;52.872;9.692;2022-12-07T00:01:22;33.20;;;17.80;;
1719;SDS011;857;52.872;9.692;2022-12-07T00:03:51;38.20;;;18.57;;
1719;SDS011;857;52.872;9.692;2022-12-07T00:06:21;32.43;;;17.43;;
1719;SDS011;857;52.872;9.692;2022-12-07T00:08:49;26.90;;;15.90;;
1719;SDS011;857;52.872;9.692;2022-12-07T00:11:17;33.97;;;19.27;;
1719;SDS011;857;52.872;9.692;2022-12-07T00:13:45;34.10;;;19.53;;
1719;SDS011;857;52.872;9.692;2022-12-07T00:16:14;34.93;;;19.17;;
1719;SDS011;857;52.872;9.692;2022-12-07T00:18:42;37.37;;;20.70;;
1719;SDS011;857;52.872;9.692;2022-12-07T00:21:11;35.93;;;20.00;;
1719;SDS011;857;52.872;9.692;2022-12-07T00:23:40;33.00;;;18.40;;
1719;SDS011;857;52.872;9.692;2022-12-07T00:26:09;36.20;;;18.73;;
1719;SDS011;857;52.872;9.692;2022-12-07T00:28:37;41.57;;;19.77;;
1719;SDS011;857;52.872;9.692;2022-12-07T00:31:06;33.33;;;17.10;;
1719;SDS011;857;52.872;9.692;2022-12-07T00:33:34;32.20;;;17.27;;
1719;SDS011;857;52.872;9.692;2022-12-07T00:36:02;39.43;;;19.00;;
1719;SDS011;857;52.872;9.692;2022-12-07T00:38:31;25.67;;;14.40;;
1719;SDS011;857;52.872;9.692;2022-12-07T00:41:01;39.23;;;19.80;;
1719;SDS011;857;52.872;9.692;2022-12-07T00:43:29;35.40;;;19.87;;
1719;SDS011;857;52.872;9.692;2022-12-07T00:45:57;31.73;;;16.10;;
1719;SDS011;857;52.872;9.692;2022-12-07T00:48:25;32.83;;;17.33;;
1719;SDS011;857;52.872;9.692;2022-12-07T00:50:52;34.93;;;19.53;;
1719;SDS011;857;52.872;9.692;2022-12-07T00:53:20;36.13;;;19.37;;
1719;SDS011;857;52.872;9.692;2022-12-07T00:55:48;33.50;;;17.87;;
1719;SDS011;857;52.872;9.692;2022-12-07T00:58:17;28.40;;;15.77;;
1719;SDS011;857;52.872;9.692;2022-12-07T01:00:45;31.53;;;16.87;;
1719;SDS011;857;52.872;9.692;2022-12-07T01:03:13;28.40;;;16.20;;
1719;SDS011;857;52.872;9.692;2022-12-07T01:05:48;26.73;;;16.27;;
1719;SDS011;857;52.872;9.692;2022-12-07T01:08:16;32.90;;;16.70;;
1719;SDS011;857;52.872;9.692;2022-12-07T01:10:44;35.37;;;17.53;;
1719;SDS011;857;52.872;9.692;2022-12-07T01:13:11;34.10;;;17.87;;
1719;SDS011;857;52.872;9.692;2022-12-07T01:15:41;36.27;;;17.50;;
1719;SDS011;857;52.872;9.692;2022-12-07T01:18:08;29.27;;;16.43;;
1719;SDS011;857;52.872;9.692;2022-12-07T01:20:36;28.50;;;16.33;;
1719;SDS011;857;52.872;9.692;2022-12-07T01:23:04;28.17;;;14.90;;
1719;SDS011;857;52.872;9.692;2022-12-07T01:25:32;25.63;;;13.83;;
1719;SDS011;857;52.872;9.692;2022-12-07T01:27:59;33.33;;;15.40;;
1719;SDS011;857;52.872;9.692;2022-12-07T01:30:27;35.73;;;18.23;;
1719;SDS011;857;52.872;9.692;2022-12-07T01:32:56;32.10;;;17.40;;
1719;SDS011;857;52.872;9.692;2022-12-07T01:35:24;39.13;;;17.57;;
1719;SDS011;857;52.872;9.692;2022-12-07T01:37:51;20.43;;;11.57;;
1719;SDS011;857;52.872;9.692;2022-12-07T01:40:19;36.10;;;17.90;;
1719;SDS011;857;52.872;9.692;2022-12-07T01:42:47;35.70;;;18.17;;
1719;SDS011;857;52.872;9.692;2022-12-07T01:45:32;18.03;;;10.57;;
1719;SDS011;857;52.872;9.692;2022-12-07T01:48:04;35.77;;;16.47;;
1719;SDS011;857;52.872;9.692;2022-12-07T01:50:32;30.63;;;16.20;;
1719;SDS011;857;52.872;9.692;2022-12-07T01:53:01;27.70;;;14.40;;
1719;SDS011;857;52.872;9.692;2022-12-07T01:55:29;36.67;;;16.97;;
1719;SDS011;857;52.872;9.692;2022-12-07T01:57:57;32.37;;;15.50;;
1719;SDS011;857;52.872;9.692;2022-12-07T02:00:25;25.60;;;13.87;;
1719;SDS011;857;52.872;9.692;2022-12-07T02:02:53;30.30;;;14.97;;
1719;SDS011;857;52.872;9.692;2022-12-07T02:05:23;27.47;;;14.07;;
1719;SDS011;857;52.872;9.692;2022-12-07T02:07:52;18.90;;;10.17;;
1719;SDS011;857;52.872;9.692;2022-12-07T02:10:21;27.57;;;13.83;;
1719;SDS011;857;52.872;9.692;2022-12-07T02:12:50;28.97;;;14.23;;
1719;SDS011;857;52.872;9.692;2022-12-07T02:15:19;27.67;;;14.40;;
1719;SDS011;857;52.872;9.692;2022-12-07T02:17:51;24.00;;;13.63;;
1719;SDS011;857;52.872;9.692;2022-12-07T02:20:26;20.27;;;12.00;;
1719;SDS011;857;52.872;9.692;2022-12-07T02:25:52;23.70;;;12.67;;
1719;SDS011;857;52.872;9.692;2022-12-07T02:28:25;19.57;;;10.97;;
1719;SDS011;857;52.872;9.692;2022-12-07T02:30:55;20.47;;;10.77;;
1719;SDS011;857;52.872;9.692;2022-12-07T02:33:27;24.20;;;12.03;;
1719;SDS011;857;52.872;9.692;2022-12-07T02:35:57;23.17;;;12.57;;
1719;SDS011;857;52.872;9.692;2022-12-07T02:38:28;21.37;;;11.03;;
1719;SDS011;857;52.872;9.692;2022-12-07T02:40:57;23.40;;;12.20;;
1719;SDS011;857;52.872;9.692;2022-12-07T02:43:30;22.40;;;11.90;;
1719;SDS011;857;52.872;9.692;2022-12-07T02:46:01;19.17;;;9.50;;
1719;SDS011;857;52.872;9.692;2022-12-07T02:48:30;16.33;;;9.17;;
1719;SDS011;857;52.872;9.692;2022-12-07T02:50:59;19.80;;;10.07;;
1719;SDS011;857;52.872;9.692;2022-12-07T02:53:33;18.20;;;9.53;;
1719;SDS011;857;52.872;9.692;2022-12-07T02:56:01;13.53;;;7.63;;
1719;SDS011;857;52.872;9.692;2022-12-07T02:58:32;19.43;;;9.13;;
1719;SDS011;857;52.872;9.692;2022-12-07T03:01:11;19.53;;;9.40;;
1719;SDS011;857;52.872;9.692;2022-12-07T03:03:42;20.53;;;9.70;;
1719;SDS011;857;52.872;9.692;2022-12-07T03:06:16;14.00;;;7.83;;
1719;SDS011;857;52.872;9.692;2022-12-07T03:08:50;15.93;;;8.47;;
1719;SDS011;857;52.872;9.692;2022-12-07T03:11:21;17.93;;;10.13;;
1719;SDS011;857;52.872;9.692;2022-12-07T03:13:53;19.90;;;8.70;;
1719;SDS011;857;52.872;9.692;2022-12-07T03:16:25;15.30;;;8.43;;
1719;SDS011;857;52.872;9.692;2022-12-07T03:18:57;15.87;;;9.03;;
1719;SDS011;857;52.872;9.692;2022-12-07T03:21:26;17.40;;;9.13;;
1719;SDS011;857;52.872;9.692;2022-12-07T03:23:55;19.93;;;8.43;;
1719;SDS011;857;52.872;9.692;2022-12-07T03:26:24;17.33;;;7.87;;
1719;SDS011;857;52.872;9.692;2022-12-07T03:28:55;12.17;;;7.07;;
1719;SDS011;857;52.872;9.692;2022-12-07T03:31:28;15.10;;;7.93;;
1719;SDS011;857;52.872;9.692;2022-12-07T03:33:58;14.20;;;7.03;;
1719;SDS011;857;52.872;9.692;2022-12-07T03:36:29;13.87;;;7.63;;
1719;SDS011;857;52.872;9.692;2022-12-07T03:38:59;11.20;;;6.40;;
1719;SDS011;857;52.872;9.692;2022-12-07T03:41:28;16.63;;;7.30;;
1719;SDS011;857;52.872;9.692;2022-12-07T03:43:57;12.23;;;7.03;;
1719;SDS011;857;52.872;9.692;2022-12-07T03:46:29;14.37;;;7.60;;
1719;SDS011;857;52.872;9.692;2022-12-07T03:49:00;14.43;;;7.23;;
1719;SDS011;857;52.872;9.692;2022-12-07T03:51:33;14.27;;;7.30;;
1719;SDS011;857;52.872;9.692;2022-12-07T03:54:05;14.73;;;7.57;;
1719;SDS011;857;52.872;9.692;2022-12-07T03:56:34;11.23;;;5.63;;
1719;SDS011;857;52.872;9.692;2022-12-07T03:59:02;9.17;;;5.70;;
1719;SDS011;857;52.872;9.692;2022-12-07T04:01:32;14.80;;;7.30;;
1719;SDS011;857;52.872;9.692;2022-12-07T04:03:59;14.77;;;6.80;;
1719;SDS011;857;52.872;9.692;2022-12-07T04:06:27;14.00;;;6.30;;
1719;SDS011;857;52.872;9.692;2022-12-07T04:08:55;11.43;;;5.50;;
1719;SDS011;857;52.872;9.692;2022-12-07T04:11:23;14.83;;;6.80;;
1719;SDS011;857;52.872;9.692;2022-12-07T04:13:50;12.17;;;6.37;;
1719;SDS011;857;52.872;9.692;2022-12-07T04:16:37;8.77;;;5.10;;
1719;SDS011;857;52.872;9.692;2022-12-07T04:19:04;12.47;;;6.57;;
1719;SDS011;857;52.872;9.692;2022-12-07T04:21:32;12.60;;;6.37;;
1719;SDS011;857;52.872;9.692;2022-12-07T04:23:59;10.70;;;6.00;;
1719;SDS011;857;52.872;9.692;2022-12-07T04:26:27;12.80;;;6.97;;
1719;SDS011;857;52.872;9.692;2022-12-07T04:28:55;12.20;;;6.30;;
1719;SDS011;857;52.872;9.692;2022-12-07T04:31:22;10.77;;;5.27;;
1719;SDS011;857;52.872;9.692;2022-12-07T04:33:52;9.00;;;5.67;;
1719;SDS011;857;52.872;9.692;2022-12-07T04:36:19;14.57;;;5.30;;
1719;SDS011;857;52.872;9.692;2022-12-07T04:38:47;10.80;;;5.17;;
1719;SDS011;857;52.872;9.692;2022-12-07T04:41:15;7.63;;;4.13;;
1719;SDS011;857;52.872;9.692;2022-12-07T04:43:42;11.90;;;5.57;;
1719;SDS011;857;52.872;9.692;2022-12-07T04:46:10;9.40;;;5.70;;
1719;SDS011;857;52.872;9.692;2022-12-07T04:48:38;8.80;;;5.50;;
1719;SDS011;857;52.872;9.692;2022-12-07T04:51:07;11.50;;;6.37;;
1719;SDS011;857;52.872;9.692;2022-12-07T04:53:34;8.13;;;5.00;;
1719;SDS011;857;52.872;9.692;2022-12-07T04:56:02;11.27;;;5.43;;
1719;SDS011;857;52.872;9.692;2022-12-07T04:58:30;10.30;;;5.60;;
1719;SDS011;857;52.872;9.692;2022-12-07T05:00:57;11.00;;;5.50;;
1719;SDS011;857;52.872;9.692;2022-12-07T05:03:25;9.10;;;5.30;;
1719;SDS011;857;52.872;9.692;2022-12-07T05:05:53;9.97;;;5.00;;
1719;SDS011;857;52.872;9.692;2022-12-07T05:08:22;8.40;;;5.20;;
1719;SDS011;857;52.872;9.692;2022-12-07T05:10:50;9.63;;;4.83;;
1719;SDS011;857;52.872;9.692;2022-12-07T05:13:17;7.47;;;4.60;;
1719;SDS011;857;52.872;9.692;2022-12-07T05:15:46;9.90;;;5.53;;
1719;SDS011;857;52.872;9.692;2022-12-07T05:18:13;9.07;;;5.17;;
1719;SDS011;857;52.872;9.692;2022-12-07T05:20:41;9.83;;;4.60;;
1719;SDS011;857;52.872;9.692;2022-12-07T05:23:09;9.80;;;4.50;;
1719;SDS011;857;52.872;9.692;2022-12-07T05:25:38;7.57;;;4.80;;
1719;SDS011;857;52.872;9.692;2022-12-07T05:28:06;7.40;;;4.07;;
1719;SDS011;857;52.872;9.692;2022-12-07T05:30:34;7.50;;;4.50;;
1719;SDS011;857;52.872;9.692;2022-12-07T05:33:02;6.73;;;3.47;;
1719;SDS011;857;52.872;9.692;2022-12-07T05:35:30;7.17;;;3.93;;
1719;SDS011;857;52.872;9.692;2022-12-07T05:38:00;10.57;;;4.70;;
1719;SDS011;857;52.872;9.692;2022-12-07T05:40:28;5.63;;;4.00;;
1719;SDS011;857;52.872;9.692;2022-12-07T05:42:58;9.50;;;4.90;;
1719;SDS011;857;52.872;9.692;2022-12-07T05:45:26;6.03;;;4.13;;
1719;SDS011;857;52.872;9.692;2022-12-07T05:47:54;11.53;;;5.57;;
1719;SDS011;857;52.872;9.692;2022-12-07T05:50:22;9.30;;;5.13;;
1719;SDS011;857;52.872;9.692;2022-12-07T05:52:59;6.33;;;4.87;;
1719;SDS011;857;52.872;9.692;2022-12-07T05:55:27;8.60;;;5.60;;
1719;SDS011;857;52.872;9.692;2022-12-07T05:57:54;10.47;;;5.23;;
1719;SDS011;857;52.872;9.692;2022-12-07T06:00:41;9.10;;;4.97;;
1719;SDS011;857;52.872;9.692;2022-12-07T06:03:08;8.97;;;5.90;;
1719;SDS011;857;52.872;9.692;2022-12-07T06:05:36;12.17;;;5.87;;
1719;SDS011;857;52.872;9.692;2022-12-07T06:08:04;11.27;;;5.40;;
1719;SDS011;857;52.872;9.692;2022-12-07T06:10:32;8.30;;;5.00;;
1719;SDS011;857;52.872;9.692;2022-12-07T06:12:59;7.57;;;5.60;;
1719;SDS011;857;52.872;9.692;2022-12-07T06:15:26;9.33;;;5.90;;
1719;SDS011;857;52.872;9.692;2022-12-07T06:17:55;9.70;;;5.67;;
1719;SDS011;857;52.872;9.692;2022-12-07T06:20:22;7.80;;;5.47;;
1719;SDS011;857;52.872;9.692;2022-12-07T06:22:50;11.93;;;6.87;;
1719;SDS011;857;52.872;9.692;2022-12-07T06:25:18;11.70;;;6.10;;
1719;SDS011;857;52.872;9.692;2022-12-07T06:27:46;10.57;;;5.37;;
1719;SDS011;857;52.872;9.692;2022-12-07T06:30:13;9.13;;;4.67;;
1719;SDS011;857;52.872;9.692;2022-12-07T06:32:41;10.77;;;6.27;;
1719;SDS011;857;52.872;9.692;2022-12-07T06:35:10;13.90;;;9.50;;
1719;SDS011;857;52.872;9.692;2022-12-07T06:37:38;10.03;;;6.07;;
1719;SDS011;857;52.872;9.692;2022-12-07T06:40:06;9.20;;;5.43;;
1719;SDS011;857;52.872;9.692;2022-12-07T06:42:34;9.60;;;5.70;;
1719;SDS011;857;52.872;9.692;2022-12-07T06:45:01;11.53;;;6.43;;
1719;SDS011;857;52.872;9.692;2022-12-07T06:47:29;20.10;;;7.97;;
1719;SDS011;857;52.872;9.692;2022-12-07T06:49:57;16.27;;;7.00;;
1719;SDS011;857;52.872;9.692;2022-12-07T06:52:28;10.57;;;6.03;;
1719;SDS011;857;52.872;9.692;2022-12-07T06:55:05;11.13;;;6.97;;
1719;SDS011;857;52.872;9.692;2022-12-07T06:57:33;10.90;;;7.17;;
1719;SDS011;857;52.872;9.692;2022-12-07T07:00:00;12.03;;;7.50;;
1719;SDS011;857;52.872;9.692;2022-12-07T07:02:28;16.93;;;8.57;;
1719;SDS011;857;52.872;9.692;2022-12-07T07:04:56;6.40;;;4.80;;
1719;SDS011;857;52.872;9.692;2022-12-07T07:07:23;11.90;;;8.17;;
1719;SDS011;857;52.872;9.692;2022-12-07T07:09:53;16.70;;;9.13;;
1719;SDS011;857;52.872;9.692;2022-12-07T07:12:20;13.90;;;8.57;;
1719;SDS011;857;52.872;9.692;2022-12-07T07:14:48;15.00;;;9.67;;
1719;SDS011;857;52.872;9.692;2022-12-07T07:17:16;19.30;;;9.37;;
1719;SDS011;857;52.872;9.692;2022-12-07T07:19:43;12.33;;;8.20;;
1719;SDS011;857;52.872;9.692;2022-12-07T07:22:11;14.47;;;8.00;;
1719;SDS011;857;52.872;9.692;2022-12-07T07:24:39;14.20;;;8.23;;
1719;SDS011;857;52.872;9.692;2022-12-07T07:27:08;11.97;;;7.10;;
1719;SDS011;857;52.872;9.692;2022-12-07T07:29:35;11.00;;;6.73;;
1719;SDS011;857;52.872;9.692;2022-12-07T07:32:03;9.23;;;6.20;;
1719;SDS011;857;52.872;9.692;2022-12-07T07:34:36;12.00;;;6.97;;
1719;SDS011;857;52.872;9.692;2022-12-07T07:37:03;7.30;;;4.00;;
1719;SDS011;857;52.872;9.692;2022-12-07T07:39:31;13.50;;;6.90;;
1719;SDS011;857;52.872;9.692;2022-12-07T07:41:59;11.60;;;5.63;;
1719;SDS011;857;52.872;9.692;2022-12-07T07:44:28;11.10;;;5.37;;
1719;SDS011;857;52.872;9.692;2022-12-07T07:46:56;6.80;;;4.67;;
1719;SDS011;857;52.872;9.692;2022-12-07T07:49:24;7.63;;;4.90;;
1719;SDS011;857;52.872;9.692;2022-12-07T07:52:00;9.53;;;5.00;;
1719;SDS011;857;52.872;9.692;2022-12-07T07:54:28;8.57;;;5.33;;
1719;SDS011;857;52.872;9.692;2022-12-07T07:56:55;8.60;;;5.27;;
1719;SDS011;857;52.872;9.692;2022-12-07T07:59:23;14.37;;;5.40;;
1719;SDS011;857;52.872;9.692;2022-12-07T08:01:52;8.87;;;5.00;;
1719;SDS011;857;52.872;9.692;2022-12-07T08:04:20;5.93;;;3.60;;
1719;SDS011;857;52.872;9.692;2022-12-07T08:06:48;7.83;;;5.60;;
1719;SDS011;857;52.872;9.692;2022-12-07T08:09:15;5.00;;;3.17;;
1719;SDS011;857;52.872;9.692;2022-12-07T08:11:43;7.10;;;5.07;;
1719;SDS011;857;52.872;9.692;2022-12-07T08:14:13;7.33;;;4.70;;
1719;SDS011;857;52.872;9.692;2022-12-07T08:21:06;11.50;;;5.90;;
1719;SDS011;857;52.872;9.692;2022-12-07T08:23:37;9.50;;;4.90;;
1719;SDS011;857;52.872;9.692;2022-12-07T08:26:15;5.73;;;3.70;;
1719;SDS011;857;52.872;9.692;2022-12-07T08:29:35;11.10;;;6.00;;
1719;SDS011;857;52.872;9.692;2022-12-07T08:38:56;11.63;;;6.33;;
1719;SDS011;857;52.872;9.692;2022-12-07T08:41:24;11.90;;;6.07;;
1719;SDS011;857;52.872;9.692;2022-12-07T08:43:52;9.60;;;5.70;;
1719;SDS011;857;52.872;9.692;2022-12-07T08:46:24;8.37;;;5.33;;
1719;SDS011;857;52.872;9.692;2022-12-07T08:49:01;11.70;;;6.37;;
1719;SDS011;857;52.872;9.692;2022-12-07T08:51:29;9.23;;;5.07;;
1719;SDS011;857;52.872;9.692;2022-12-07T08:53:59;10.27;;;5.33;;
1719;SDS011;857;52.872;9.692;2022-12-07T08:56:37;7.83;;;4.43;;
1719;SDS011;857;52.872;9.692;2022-12-07T08:59:06;7.00;;;5.33;;
1719;SDS011;857;52.872;9.692;2022-12-07T09:01:34;7.40;;;5.17;;
1719;SDS011;857;52.872;9.692;2022-12-07T09:04:02;11.37;;;5.57;;
1719;SDS011;857;52.872;9.692;2022-12-07T09:06:30;7.17;;;5.20;;
1719;SDS011;857;52.872;9.692;2022-12-07T09:09:03;8.30;;;4.40;;
1719;SDS011;857;52.872;9.692;2022-12-07T09:11:39;7.33;;;4.83;;
1719;SDS011;857;52.872;9.692;2022-12-07T09:14:11;10.70;;;4.73;;
1719;SDS011;857;52.872;9.692;2022-12-07T09:16:39;8.57;;;5.20;;
1719;SDS011;857;52.872;9.692;2022-12-07T09:19:07;7.80;;;5.00;;
1719;SDS011;857;52.872;9.692;2022-12-07T09:21:35;4.87;;;3.60;;
1719;SDS011;857;52.872;9.692;2022-12-07T09:24:06;9.87;;;5.40;;
1719;SDS011;857;52.872;9.692;2022-12-07T09:26:35;10.00;;;5.80;;
1719;SDS011;857;52.872;9.692;2022-12-07T09:29:04;8.43;;;4.73;;
1719;SDS011;857;52.872;9.692;2022-12-07T09:31:32;7.53;;;5.47;;
1719;SDS011;857;52.872;9.692;2022-12-07T09:34:00;9.50;;;5.40;;
1719;SDS011;857;52.872;9.692;2022-12-07T09:36:28;12.47;;;5.93;;
1719;SDS011;857;52.872;9.692;2022-12-07T09:38:56;5.53;;;4.80;;
1719;SDS011;857;52.872;9.692;2022-12-07T09:41:25;6.67;;;4.73;;
1719;SDS011;857;52.872;9.692;2022-12-07T09:43:56;5.80;;;3.17;;
1719;SDS011;857;52.872;9.692;2022-12-07T09:46:25;8.33;;;5.23;;
1719;SDS011;857;52.872;9.692;2022-12-07T09:48:53;8.80;;;4.90;;
1719;SDS011;857;52.872;9.692;2022-12-07T09:51:22;3.93;;;3.13;;
1719;SDS011;857;52.872;9.692;2022-12-07T09:53:50;5.63;;;3.53;;
1719;SDS011;857;52.872;9.692;2022-12-07T09:56:19;5.17;;;3.60;;
1719;SDS011;857;52.872;9.692;2022-12-07T09:58:48;4.93;;;3.90;;
1719;SDS011;857;52.872;9.692;2022-12-07T10:01:18;7.10;;;4.30;;
1719;SDS011;857;52.872;9.692;2022-12-07T10:03:48;9.77;;;6.20;;
1719;SDS011;857;52.872;9.692;2022-12-07T10:06:17;9.80;;;6.53;;
1719;SDS011;857;52.872;9.692;2022-12-07T10:08:46;12.03;;;6.90;;
1719;SDS011;857;52.872;9.692;2022-12-07T10:11:14;10.60;;;7.90;;
1719;SDS011;857;52.872;9.692;2022-12-07T10:13:42;9.93;;;5.23;;
1719;SDS011;857;52.872;9.692;2022-12-07T10:16:27;11.07;;;8.00;;
1719;SDS011;857;52.872;9.692;2022-12-07T10:19:01;13.20;;;8.10;;
1719;SDS011;857;52.872;9.692;2022-12-07T10:21:47;10.53;;;7.50;;
1719;SDS011;857;52.872;9.692;2022-12-07T10:24:26;8.20;;;5.77;;
1719;SDS011;857;52.872;9.692;2022-12-07T10:26:54;14.43;;;8.97;;
1719;SDS011;857;52.872;9.692;2022-12-07T10:29:23;9.83;;;7.33;;
1719;SDS011;857;52.872;9.692;2022-12-07T10:31:54;12.80;;;9.57;;
1719;SDS011;857;52.872;9.692;2022-12-07T10:34:24;11.77;;;7.10;;
1719;SDS011;857;52.872;9.692;2022-12-07T10:36:52;10.20;;;6.60;;
1719;SDS011;857;52.872;9.692;2022-12-07T10:39:21;10.53;;;7.33;;
1719;SDS011;857;52.872;9.692;2022-12-07T10:41:52;5.37;;;3.87;;
1719;SDS011;857;52.872;9.692;2022-12-07T10:44:22;10.07;;;6.47;;
1719;SDS011;857;52.872;9.692;2022-12-07T10:49:44;9.17;;;5.13;;
1719;SDS011;857;52.872;9.692;2022-12-07T10:52:18;5.80;;;3.67;;
1719;SDS011;857;52.872;9.692;2022-12-07T10:54:53;10.27;;;4.57;;
1719;SDS011;857;52.872;9.692;2022-12-07T10:57:29;3.93;;;3.10;;
1719;SDS011;857;52.872;9.692;2022-12-07T11:00:07;5.50;;;3.00;;
1719;SDS011;857;52.872;9.692;2022-12-07T11:05:26;3.47;;;2.30;;
1719;SDS011;857;52.872;9.692;2022-12-07T11:07:59;3.60;;;2.30;;
1719;SDS011;857;52.872;9.692;2022-12-07T11:10:30;3.33;;;2.17;;
1719;SDS011;857;52.872;9.692;2022-12-07T11:13:12;5.90;;;2.30;;
1719;SDS011;857;52.872;9.692;2022-12-07T11:15:47;2.00;;;1.80;;
1719;SDS011;857;52.872;9.692;2022-12-07T11:18:32;2.13;;;1.90;;
1719;SDS011;857;52.872;9.692;2022-12-07T11:21:06;5.47;;;3.43;;
1719;SDS011;857;52.872;9.692;2022-12-07T11:23:39;3.23;;;2.77;;
1719;SDS011;857;52.872;9.692;2022-12-07T11:26:12;4.13;;;3.30;;
1719;SDS011;857;52.872;9.692;2022-12-07T11:28:48;4.60;;;3.17;;
1719;SDS011;857;52.872;9.692;2022-12-07T11:31:27;5.60;;;4.00;;
1719;SDS011;857;52.872;9.692;2022-12-07T11:34:13;5.90;;;4.20;;
1719;SDS011;857;52.872;9.692;2022-12-07T11:36:45;4.13;;;3.50;;
1719;SDS011;857;52.872;9.692;2022-12-07T11:39:16;5.90;;;4.73;;
1719;SDS011;857;52.872;9.692;2022-12-07T11:41:49;6.33;;;4.50;;
1719;SDS011;857;52.872;9.692;2022-12-07T11:44:20;11.17;;;6.60;;
1719;SDS011;857;52.872;9.692;2022-12-07T11:46:51;10.40;;;6.53;;
1719;SDS011;857;52.872;9.692;2022-12-07T11:49:23;10.50;;;6.80;;
1719;SDS011;857;52.872;9.692;2022-12-07T11:51:57;8.77;;;7.00;;
1719;SDS011;857;52.872;9.692;2022-12-07T11:54:26;13.23;;;7.13;;
1719;SDS011;857;52.872;9.692;2022-12-07T11:56:56;7.17;;;4.63;;
1719;SDS011;857;52.872;9.692;2022-12-07T11:59:28;11.33;;;6.53;;
1719;SDS011;857;52.872;9.692;2022-12-07T12:02:00;11.63;;;6.87;;
1719;SDS011;857;52.872;9.692;2022-12-07T12:04:32;13.00;;;7.20;;
1719;SDS011;857;52.872;9.692;2022-12-07T12:07:03;7.97;;;6.50;;
1719;SDS011;857;52.872;9.692;2022-12-07T12:09:34;4.97;;;3.93;;
1719;SDS011;857;52.872;9.692;2022-12-07T12:12:14;4.23;;;3.63;;
1719;SDS011;857;52.872;9.692;2022-12-07T12:14:47;6.90;;;4.30;;
1719;SDS011;857;52.872;9.692;2022-12-07T12:17:21;9.50;;;7.10;;
1719;SDS011;857;52.872;9.692;2022-12-07T12:19:58;8.83;;;6.23;;
1719;SDS011;857;52.872;9.692;2022-12-07T12:22:32;8.50;;;5.60;;
1719;SDS011;857;52.872;9.692;2022-12-07T12:25:02;8.00;;;6.47;;
1719;SDS011;857;52.872;9.692;2022-12-07T12:27:34;3.83;;;3.27;;
1719;SDS011;857;52.872;9.692;2022-12-07T12:30:05;4.60;;;3.53;;
1719;SDS011;857;52.872;9.692;2022-12-07T12:32:36;5.00;;;3.53;;
1719;SDS011;857;52.872;9.692;2022-12-07T12:37:50;8.70;;;4.57;;
1719;SDS011;857;52.872;9.692;2022-12-07T12:40:38;5.70;;;4.77;;
1719;SDS011;857;52.872;9.692;2022-12-07T12:45:49;7.60;;;5.97;;
1719;SDS011;857;52.872;9.692;2022-12-07T12:48:27;8.57;;;6.00;;
1719;SDS011;857;52.872;9.692;2022-12-07T12:54:20;5.80;;;4.30;;
1719;SDS011;857;52.872;9.692;2022-12-07T12:56:50;6.93;;;4.67;;
1719;SDS011;857;52.872;9.692;2022-12-07T12:59:23;8.93;;;5.30;;
1719;SDS011;857;52.872;9.692;2022-12-07T13:01:51;9.77;;;5.30;;
1719;SDS011;857;52.872;9.692;2022-12-07T13:04:28;7.60;;;5.57;;
1719;SDS011;857;52.872;9.692;2022-12-07T13:06:58;5.67;;;4.53;;
1719;SDS011;857;52.872;9.692;2022-12-07T13:09:27;7.13;;;4.53;;
1719;SDS011;857;52.872;9.692;2022-12-07T13:12:00;7.97;;;4.57;;
1719;SDS011;857;52.872;9.692;2022-12-07T13:14:39;5.30;;;3.30;;
1719;SDS011;857;52.872;9.692;2022-12-07T13:17:08;4.57;;;3.57;;
1719;SDS011;857;52.872;9.692;2022-12-07T13:25:29;3.70;;;2.50;;
1719;SDS011;857;52.872;9.692;2022-12-07T13:27:59;3.63;;;2.70;;
1719;SDS011;857;52.872;9.692;2022-12-07T13:30:28;4.10;;;2.80;;
1719;SDS011;857;52.872;9.692;2022-12-07T13:32:57;3.50;;;2.33;;
1719;SDS011;857;52.872;9.692;2022-12-07T13:35:29;8.30;;;2.40;;
1719;SDS011;857;52.872;9.692;2022-12-07T13:37:58;4.07;;;2.00;;
1719;SDS011;857;52.872;9.692;2022-12-07T13:40:27;3.33;;;1.50;;
1719;SDS011;857;52.872;9.692;2022-12-07T13:42:59;2.60;;;1.50;;
1719;SDS011;857;52.872;9.692;2022-12-07T13:45:27;2.40;;;1.93;;
1719;SDS011;857;52.872;9.692;2022-12-07T13:48:10;6.03;;;2.23;;
1719;SDS011;857;52.872;9.692;2022-12-07T13:50:41;4.37;;;1.70;;
1719;SDS011;857;52.872;9.692;2022-12-07T13:53:11;3.10;;;2.40;;
1719;SDS011;857;52.872;9.692;2022-12-07T13:55:45;2.40;;;1.43;;
1719;SDS011;857;52.872;9.692;2022-12-07T13:58:13;3.93;;;2.07;;
1719;SDS011;857;52.872;9.692;2022-12-07T14:00:42;6.43;;;2.10;;
1719;SDS011;857;52.872;9.692;2022-12-07T14:03:27;4.33;;;1.60;;
1719;SDS011;857;52.872;9.692;2022-12-07T14:08:42;1.70;;;1.40;;
1719;SDS011;857;52.872;9.692;2022-12-07T14:11:12;5.67;;;1.93;;
1719;SDS011;857;52.872;9.692;2022-12-07T14:13:44;3.57;;;2.00;;
1719;SDS011;857;52.872;9.692;2022-12-07T14:16:18;4.30;;;2.70;;
1719;SDS011;857;52.872;9.692;2022-12-07T14:18:48;4.47;;;2.83;;
1719;SDS011;857;52.872;9.692;2022-12-07T14:21:17;6.33;;;2.83;;
1719;SDS011;857;52.872;9.692;2022-12-07T14:23:45;3.90;;;2.80;;
1719;SDS011;857;52.872;9.692;2022-12-07T14:26:14;5.30;;;2.87;;
1719;SDS011;857;52.872;9.692;2022-12-07T14:28:43;3.73;;;2.83;;
1719;SDS011;857;52.872;9.692;2022-12-07T14:31:11;4.80;;;2.90;;
1719;SDS011;857;52.872;9.692;2022-12-07T14:33:39;7.30;;;3.57;;
1719;SDS011;857;52.872;9.692;2022-12-07T14:36:08;5.90;;;3.30;;
1719;SDS011;857;52.872;9.692;2022-12-07T14:38:36;7.77;;;4.90;;
1719;SDS011;857;52.872;9.692;2022-12-07T14:41:04;4.00;;;2.67;;
1719;SDS011;857;52.872;9.692;2022-12-07T14:43:51;6.83;;;4.20;;
1719;SDS011;857;52.872;9.692;2022-12-07T14:46:18;9.13;;;3.90;;
1719;SDS011;857;52.872;9.692;2022-12-07T14:48:46;8.90;;;4.47;;
1719;SDS011;857;52.872;9.692;2022-12-07T14:51:14;20.53;;;11.43;;
1719;SDS011;857;52.872;9.692;2022-12-07T14:53:42;7.00;;;3.70;;
1719;SDS011;857;52.872;9.692;2022-12-07T14:56:11;8.73;;;4.30;;
1719;SDS011;857;52.872;9.692;2022-12-07T14:58:39;8.97;;;5.57;;
1719;SDS011;857;52.872;9.692;2022-12-07T15:01:08;6.13;;;4.03;;
1719;SDS011;857;52.872;9.692;2022-12-07T15:03:36;7.53;;;3.77;;
1719;SDS011;857;52.872;9.692;2022-12-07T15:06:04;7.30;;;4.93;;
1719;SDS011;857;52.872;9.692;2022-12-07T15:08:32;10.37;;;5.37;;
1719;SDS011;857;52.872;9.692;2022-12-07T15:11:00;8.20;;;5.13;;
1719;SDS011;857;52.872;9.692;2022-12-07T15:13:28;7.87;;;4.53;;
1719;SDS011;857;52.872;9.692;2022-12-07T15:16:16;14.40;;;5.37;;
1719;SDS011;857;52.872;9.692;2022-12-07T15:18:46;10.47;;;5.90;;
1719;SDS011;857;52.872;9.692;2022-12-07T15:21:14;9.67;;;6.00;;
1719;SDS011;857;52.872;9.692;2022-12-07T15:23:42;23.70;;;14.90;;
1719;SDS011;857;52.872;9.692;2022-12-07T15:26:10;13.47;;;8.10;;
1719;SDS011;857;52.872;9.692;2022-12-07T15:28:37;10.23;;;6.50;;
1719;SDS011;857;52.872;9.692;2022-12-07T15:31:10;8.07;;;6.00;;
1719;SDS011;857;52.872;9.692;2022-12-07T15:33:39;6.37;;;4.30;;
1719;SDS011;857;52.872;9.692;2022-12-07T15:36:07;17.00;;;8.17;;
1719;SDS011;857;52.872;9.692;2022-12-07T15:38:35;6.20;;;3.47;;
1719;SDS011;857;52.872;9.692;2022-12-07T15:41:03;8.57;;;3.70;;
1719;SDS011;857;52.872;9.692;2022-12-07T15:43:30;6.60;;;3.90;;
1719;SDS011;857;52.872;9.692;2022-12-07T15:46:16;6.47;;;3.50;;
1719;SDS011;857;52.872;9.692;2022-12-07T15:48:46;7.40;;;3.07;;
1719;SDS011;857;52.872;9.692;2022-12-07T15:51:14;5.03;;;3.27;;
1719;SDS011;857;52.872;9.692;2022-12-07T15:53:41;6.03;;;3.20;;
1719;SDS011;857;52.872;9.692;2022-12-07T15:56:09;4.03;;;3.00;;
1719;SDS011;857;52.872;9.692;2022-12-07T15:58:37;5.10;;;3.30;;
1719;SDS011;857;52.872;9.692;2022-12-07T16:01:09;6.47;;;2.67;;
1719;SDS011;857;52.872;9.692;2022-12-07T16:03:37;4.50;;;2.87;;
1719;SDS011;857;52.872;9.692;2022-12-07T16:06:06;3.97;;;2.67;;
1719;SDS011;857;52.872;9.692;2022-12-07T16:08:34;4.70;;;2.67;;
1719;SDS011;857;52.872;9.692;2022-12-07T16:11:04;3.90;;;2.60;;
1719;SDS011;857;52.872;9.692;2022-12-07T16:13:32;5.30;;;3.20;;
1719;SDS011;857;52.872;9.692;2022-12-07T16:16:01;3.83;;;2.50;;